createdAt,value
2019-04-21T00:02:25.425Z,5.47
2019-04-21T00:05:12.936Z,4.87
2019-04-21T00:07:36.540Z,4.58
2019-04-21T00:10:14.999Z,4.37
2019-04-21T00:12:40.597Z,4.85
2019-04-21T00:15:01.978Z,4.87
2019-04-21T00:17:26.993Z,5.20
2019-04-21T00:20:09.034Z,4.20
2019-04-21T00:22:41.699Z,3.90
2019-04-21T00:25:16.329Z,4.47
2019-04-21T00:27:46.522Z,4.58
2019-04-21T00:30:21.382Z,4.28
2019-04-21T00:32:47.998Z,4.70
2019-04-21T00:35:13.591Z,4.67
2019-04-21T00:38:02.289Z,4.20
2019-04-21T00:40:39.814Z,4.00
2019-04-21T00:43:01.372Z,4.60
2019-04-21T00:45:29.066Z,4.78
2019-04-21T00:48:03.859Z,4.08
2019-04-21T00:50:51.426Z,4.25
2019-04-21T00:53:14.325Z,4.20
2019-04-21T00:55:48.547Z,4.20
2019-04-21T00:58:27.071Z,4.62
2019-04-21T01:00:52.669Z,4.60
2019-04-21T01:03:23.135Z,4.90
2019-04-21T01:05:57.574Z,4.30
2019-04-21T01:08:21.948Z,4.40
2019-04-21T01:10:47.365Z,3.80
2019-04-21T01:13:28.703Z,4.00
2019-04-21T01:15:59.559Z,4.15
2019-04-21T01:18:27.650Z,3.80
2019-04-21T01:20:38.324Z,4.53
2019-04-21T01:23:08.487Z,4.45
2019-04-21T01:25:46.049Z,4.22
2019-04-21T01:28:24.132Z,4.30
2019-04-21T01:30:56.861Z,3.98
2019-04-21T01:33:34.935Z,4.20
2019-04-21T01:35:58.335Z,4.40
2019-04-21T01:38:48.479Z,4.72
2019-04-21T01:41:09.997Z,4.40
2019-04-21T01:43:33.321Z,4.83
2019-04-21T01:46:06.647Z,5.28
2019-04-21T01:48:34.551Z,7.03
2019-04-21T01:51:07.599Z,8.10
2019-04-21T01:53:51.508Z,6.10
2019-04-21T01:56:24.734Z,5.67
2019-04-21T01:58:44.301Z,5.87
2019-04-21T02:01:26.216Z,4.08
2019-04-21T02:03:55.880Z,4.97
2019-04-21T02:06:29.050Z,4.70
2019-04-21T02:08:58.633Z,4.67
2019-04-21T02:11:31.260Z,4.45
2019-04-21T02:14:05.507Z,4.62
2019-04-21T02:16:34.548Z,4.72
2019-04-21T02:18:58.127Z,4.90
2019-04-21T02:21:31.799Z,4.87
2019-04-21T02:24:11.885Z,5.90
2019-04-21T02:26:57.302Z,5.55
2019-04-21T02:29:29.079Z,6.00
2019-04-21T02:31:45.171Z,5.78
2019-04-21T02:34:25.867Z,6.40
2019-04-21T02:39:19.266Z,7.17
2019-04-21T02:46:50.466Z,6.75
2019-04-21T02:52:01.220Z,5.87
2019-04-21T02:57:04.840Z,4.87
2019-04-21T03:02:31.390Z,5.25
2019-04-21T03:04:53.433Z,5.58
2019-04-21T03:12:28.635Z,4.67
2019-04-21T03:15:08.029Z,4.65
2019-04-21T03:17:54.984Z,4.45
2019-04-21T03:22:31.593Z,5.30
2019-04-21T03:30:10.386Z,4.60
2019-04-21T03:37:37.190Z,4.80
2019-04-21T03:42:52.972Z,4.50
2019-04-21T03:45:23.659Z,5.45
2019-04-21T03:47:50.128Z,5.22
2019-04-21T03:50:22.679Z,5.17
2019-04-21T03:52:53.405Z,5.65
2019-04-21T03:55:50.394Z,6.03
2019-04-21T04:00:49.837Z,4.67
2019-04-21T04:03:49.205Z,5.17
2019-04-21T04:08:53.923Z,5.12
2019-04-21T04:11:23.070Z,4.87
2019-04-21T04:16:16.967Z,5.55
2019-04-21T04:18:53.272Z,5.17
2019-04-21T04:21:30.794Z,4.33
2019-04-21T04:23:58.031Z,5.20
2019-04-21T04:26:33.552Z,5.15
2019-04-21T04:29:17.461Z,5.20
2019-04-21T04:34:12.597Z,4.62
2019-04-21T04:39:36.228Z,4.62
2019-04-21T04:42:25.678Z,4.70
2019-04-21T04:44:46.632Z,4.78
2019-04-21T04:47:10.342Z,4.78
2019-04-21T04:49:43.202Z,4.42
2019-04-21T04:52:18.857Z,4.80
2019-04-21T04:54:46.936Z,5.10
2019-04-21T04:57:18.092Z,5.30
2019-04-21T04:59:42.425Z,5.58
2019-04-21T05:07:15.103Z,5.50
2019-04-21T05:09:50.443Z,5.22
2019-04-21T05:12:11.767Z,5.25
2019-04-21T05:14:46.618Z,6.00
2019-04-21T05:17:24.933Z,5.75
2019-04-21T05:20:07.667Z,7.05
2019-04-21T05:22:22.331Z,5.90
2019-04-21T05:24:37.880Z,5.95
2019-04-21T05:27:07.360Z,6.35
2019-04-21T05:29:56.790Z,5.20
2019-04-21T05:32:33.181Z,6.00
2019-04-21T05:35:01.899Z,5.45
2019-04-21T05:37:39.780Z,5.72
2019-04-21T05:40:05.751Z,5.30
2019-04-21T05:42:35.249Z,5.87
2019-04-21T05:45:21.110Z,5.30
2019-04-21T05:48:02.699Z,5.20
2019-04-21T05:50:23.937Z,5.08
2019-04-21T05:52:53.533Z,5.25
2019-04-21T05:55:40.454Z,5.50
2019-04-21T05:58:02.527Z,5.42
2019-04-21T06:00:54.921Z,4.90
2019-04-21T06:03:09.885Z,5.08
2019-04-21T06:05:42.509Z,4.92
2019-04-21T06:08:09.827Z,5.25
2019-04-21T06:10:43.320Z,5.75
2019-04-21T06:13:15.435Z,5.40
2019-04-21T06:15:50.286Z,5.00
2019-04-21T06:18:21.808Z,6.37
2019-04-21T06:20:49.313Z,5.95
2019-04-21T06:23:22.422Z,6.17
2019-04-21T06:28:21.015Z,7.20
2019-04-21T06:30:59.679Z,6.60
2019-04-21T06:33:20.245Z,6.25
2019-04-21T06:36:23.502Z,6.08
2019-04-21T06:39:06.430Z,6.72
2019-04-21T06:44:07.573Z,12.47
2019-04-21T06:47:02.664Z,30.88
2019-04-21T06:51:30.510Z,16.60
2019-04-21T06:59:06.733Z,6.47
2019-04-21T07:01:42.228Z,5.90
2019-04-21T07:04:21.008Z,6.17
2019-04-21T07:06:42.615Z,5.60
2019-04-21T07:09:23.788Z,6.17
2019-04-21T07:11:41.240Z,5.85
2019-04-21T07:14:25.628Z,6.08
2019-04-21T07:16:45.201Z,5.97
2019-04-21T07:19:29.029Z,6.60
2019-04-21T07:21:45.773Z,6.12
2019-04-21T07:24:21.612Z,5.45
2019-04-21T07:26:51.327Z,5.83
2019-04-21T07:29:23.100Z,5.45
2019-04-21T07:34:28.762Z,6.28
2019-04-21T07:36:55.976Z,5.60
2019-04-21T07:39:18.078Z,6.12
2019-04-21T07:41:51.086Z,5.75
2019-04-21T07:44:18.113Z,5.67
2019-04-21T07:46:46.989Z,5.45
2019-04-21T07:49:44.601Z,6.12
2019-04-21T07:52:28.254Z,5.03
2019-04-21T07:55:12.947Z,5.95
2019-04-21T07:57:28.130Z,5.53
2019-04-21T08:00:14.999Z,5.15
2019-04-21T08:02:57.226Z,5.28
2019-04-21T08:05:07.458Z,5.20
2019-04-21T08:07:44.987Z,5.62
2019-04-21T08:10:06.139Z,4.90
2019-04-21T08:12:30.516Z,4.55
2019-04-21T08:15:15.481Z,5.72
2019-04-21T08:17:36.697Z,4.85
2019-04-21T08:20:08.948Z,13.38
2019-04-21T08:22:46.574Z,5.08
2019-04-21T08:25:11.782Z,4.62
2019-04-21T08:27:49.532Z,4.60
2019-04-21T08:30:11.836Z,4.47
2019-04-21T08:32:51.474Z,4.67
2019-04-21T08:37:43.418Z,4.80
2019-04-21T08:42:49.105Z,3.65
2019-04-21T08:45:25.833Z,3.45
2019-04-21T08:47:51.961Z,3.58
2019-04-21T08:50:20.715Z,3.40
2019-04-21T08:52:57.023Z,3.20
2019-04-21T08:55:39.968Z,3.20
2019-04-21T08:58:28.960Z,10.70
2019-04-21T09:01:01.090Z,2.70
2019-04-21T09:03:49.526Z,8.03
2019-04-21T09:06:40.571Z,3.10
2019-04-21T09:08:53.497Z,2.58
2019-04-21T09:11:22.730Z,2.95
2019-04-21T09:13:54.734Z,2.62
2019-04-21T09:16:27.957Z,2.65
2019-04-21T09:18:50.257Z,2.50
2019-04-21T09:21:31.751Z,2.40
2019-04-21T09:23:56.311Z,2.12
2019-04-21T09:26:29.330Z,2.12
2019-04-21T09:28:57.153Z,2.35
2019-04-21T09:31:17.974Z,2.85
2019-04-21T09:33:50.781Z,2.42
2019-04-21T09:36:21.171Z,2.27
2019-04-21T09:38:58.696Z,3.12
2019-04-21T09:41:22.880Z,1.95
2019-04-21T09:43:53.670Z,2.10
2019-04-21T09:46:21.452Z,2.62
2019-04-21T09:48:58.653Z,2.10
2019-04-21T09:51:21.851Z,2.10
2019-04-21T09:53:57.246Z,2.17
2019-04-21T09:56:31.506Z,2.35
2019-04-21T09:59:04.021Z,2.22
2019-04-21T10:01:36.761Z,1.72
2019-04-21T10:04:01.689Z,1.60
2019-04-21T10:06:30.574Z,1.82
2019-04-21T10:09:04.184Z,1.52
2019-04-21T10:11:33.302Z,1.90
2019-04-21T10:14:03.212Z,1.45
2019-04-21T10:16:40.640Z,1.70
2019-04-21T10:19:11.186Z,1.40
2019-04-21T10:21:40.623Z,1.60
2019-04-21T10:24:10.480Z,1.62
2019-04-21T10:26:40.993Z,2.72
2019-04-21T10:29:16.993Z,4.28
2019-04-21T10:31:42.730Z,1.77
2019-04-21T10:34:13.523Z,1.75
2019-04-21T10:36:49.293Z,1.40
2019-04-21T10:39:19.711Z,1.55
2019-04-21T10:41:49.255Z,1.67
2019-04-21T10:44:19.008Z,1.70
2019-04-21T10:46:50.358Z,2.62
2019-04-21T10:49:19.510Z,1.22
2019-04-21T10:51:49.015Z,1.20
2019-04-21T10:54:26.095Z,1.32
2019-04-21T10:56:56.648Z,1.92
2019-04-21T10:59:31.072Z,1.37
2019-04-21T11:02:05.063Z,2.08
2019-04-21T11:04:45.076Z,2.70
2019-04-21T11:07:45.103Z,1.75
2019-04-21T11:10:05.935Z,1.92
2019-04-21T11:12:37.734Z,1.60
2019-04-21T11:15:07.411Z,1.47
2019-04-21T11:17:36.708Z,1.55
2019-04-21T11:20:06.697Z,1.60
2019-04-21T11:22:38.183Z,1.50
2019-04-21T11:25:07.533Z,1.37
2019-04-21T11:30:07.537Z,1.80
2019-04-21T11:32:37.115Z,1.52
2019-04-21T11:35:07.335Z,1.37
2019-04-21T11:37:37.869Z,1.55
2019-04-21T11:40:12.257Z,1.50
2019-04-21T11:42:40.203Z,1.22
2019-04-21T11:45:14.670Z,1.30
2019-04-21T11:47:46.009Z,1.65
2019-04-21T11:50:15.370Z,1.42
2019-04-21T11:55:14.557Z,1.70
2019-04-21T11:57:46.900Z,1.82
2019-04-21T12:00:15.812Z,1.47
2019-04-21T12:02:45.702Z,1.22
2019-04-21T12:05:15.287Z,1.50
2019-04-21T12:07:45.210Z,1.60
2019-04-21T12:10:15.505Z,1.50
2019-04-21T12:12:45.403Z,1.90
2019-04-21T12:15:16.729Z,1.85
2019-04-21T12:17:46.227Z,1.62
2019-04-21T12:22:45.317Z,1.87
2019-04-21T12:25:20.855Z,2.10
2019-04-21T12:27:50.380Z,1.77
2019-04-21T12:30:20.007Z,1.80
2019-04-21T12:32:57.986Z,1.65
2019-04-21T12:35:28.086Z,1.67
2019-04-21T12:37:58.507Z,1.92
2019-04-21T12:40:28.409Z,1.95
2019-04-21T12:42:58.831Z,1.70
2019-04-21T12:45:28.588Z,1.80
2019-04-21T12:47:58.022Z,1.67
2019-04-21T12:50:27.764Z,1.60
2019-04-21T12:52:57.766Z,1.50
2019-04-21T12:55:31.595Z,1.50
2019-04-21T12:57:59.446Z,1.42
2019-04-21T13:00:29.027Z,1.50
2019-04-21T13:02:58.501Z,1.85
2019-04-21T13:07:57.468Z,1.90
2019-04-21T13:10:28.312Z,2.17
2019-04-21T13:12:57.936Z,1.62
2019-04-21T13:15:29.332Z,1.82
2019-04-21T13:17:58.859Z,1.85
2019-04-21T13:22:57.781Z,2.03
2019-04-21T13:25:27.806Z,1.92
2019-04-21T13:27:58.580Z,2.08
2019-04-21T13:30:28.417Z,1.87
2019-04-21T13:32:58.895Z,1.90
2019-04-21T13:35:28.928Z,2.20
2019-04-21T13:37:58.526Z,2.65
2019-04-21T13:40:48.694Z,2.50
2019-04-21T13:43:08.100Z,2.45
2019-04-21T13:45:37.313Z,3.10
2019-04-21T13:48:08.316Z,2.83
2019-04-21T13:50:39.363Z,3.05
2019-04-21T13:53:09.081Z,2.05
2019-04-21T13:55:40.758Z,2.58
2019-04-21T13:58:10.480Z,2.20
2019-04-21T14:03:10.438Z,2.83
2019-04-21T14:05:40.295Z,1.92
2019-04-21T14:08:11.182Z,2.20
2019-04-21T14:10:41.702Z,2.00
2019-04-21T14:13:12.164Z,2.00
2019-04-21T14:15:42.094Z,2.12
2019-04-21T14:18:13.026Z,1.90
2019-04-21T14:25:43.746Z,2.12
2019-04-21T14:28:14.250Z,2.33
2019-04-21T14:30:44.309Z,1.75
2019-04-21T14:33:14.167Z,2.10
2019-04-21T14:35:45.021Z,2.00
2019-04-21T14:38:14.494Z,2.35
2019-04-21T14:40:46.143Z,1.85
2019-04-21T14:43:16.430Z,2.17
2019-04-21T14:46:00.957Z,2.02
2019-04-21T14:48:48.779Z,2.12
2019-04-21T14:51:29.366Z,2.20
2019-04-21T14:54:21.045Z,2.15
2019-04-21T14:56:51.302Z,2.92
2019-04-21T14:59:21.841Z,1.98
2019-04-21T15:01:51.794Z,2.02
2019-04-21T15:04:22.430Z,2.05
2019-04-21T15:06:52.640Z,2.12
2019-04-21T15:11:51.922Z,2.05
2019-04-21T15:14:22.228Z,2.00
2019-04-21T15:16:51.635Z,1.60
2019-04-21T15:19:20.940Z,2.90
2019-04-21T15:21:50.348Z,1.70
2019-04-21T15:24:20.731Z,1.62
2019-04-21T15:26:52.764Z,2.10
2019-04-21T15:29:21.337Z,1.72
2019-04-21T15:31:52.611Z,2.10
2019-04-21T15:34:23.921Z,1.90
2019-04-21T15:36:53.063Z,2.00
2019-04-21T15:39:23.566Z,2.33
2019-04-21T15:41:54.464Z,1.90
2019-04-21T15:44:24.822Z,1.80
2019-04-21T15:46:55.585Z,2.22
2019-04-21T15:49:28.320Z,2.22
2019-04-21T15:51:58.130Z,1.98
2019-04-21T15:56:58.685Z,1.80
2019-04-21T15:59:30.580Z,1.80
2019-04-21T16:02:01.628Z,1.50
2019-04-21T16:04:32.655Z,1.75
2019-04-21T16:07:03.659Z,1.95
2019-04-21T16:09:35.879Z,2.15
2019-04-21T16:12:04.292Z,2.08
2019-04-21T16:14:34.508Z,2.22
2019-04-21T16:17:05.287Z,2.25
2019-04-21T16:19:36.236Z,2.12
2019-04-21T16:22:06.436Z,2.10
2019-04-21T16:24:35.980Z,2.20
2019-04-21T16:27:08.507Z,2.00
2019-04-21T16:29:37.420Z,1.95
2019-04-21T16:32:07.028Z,1.92
2019-04-21T16:34:45.573Z,2.65
2019-04-21T16:37:07.916Z,2.35
2019-04-21T16:39:37.761Z,2.30
2019-04-21T16:42:08.491Z,2.52
2019-04-21T16:44:38.895Z,2.05
2019-04-21T16:47:09.613Z,2.08
2019-04-21T16:49:40.078Z,2.45
2019-04-21T16:52:14.136Z,2.25
2019-04-21T16:54:46.142Z,1.98
2019-04-21T16:57:30.063Z,2.10
2019-04-21T17:00:04.529Z,2.00
2019-04-21T17:02:36.630Z,2.10
2019-04-21T17:05:07.569Z,1.72
2019-04-21T17:07:36.885Z,2.20
2019-04-21T17:10:06.579Z,2.30
2019-04-21T17:12:37.462Z,2.70
2019-04-21T17:15:25.230Z,2.75
2019-04-21T17:18:00.454Z,2.40
2019-04-21T17:20:24.386Z,2.95
2019-04-21T17:22:41.972Z,2.50
2019-04-21T17:25:11.529Z,10.40
2019-04-21T17:27:40.935Z,4.85
2019-04-21T17:30:12.667Z,4.80
2019-04-21T17:32:48.007Z,6.20
2019-04-21T17:35:16.654Z,7.25
2019-04-21T17:37:47.811Z,7.72
2019-04-21T17:40:24.061Z,9.85
2019-04-21T17:43:02.044Z,2.50
2019-04-21T17:45:27.015Z,2.05
2019-04-21T17:48:03.242Z,2.50
2019-04-21T17:51:05.345Z,2.50
2019-04-21T17:53:44.937Z,2.35
2019-04-21T17:56:33.856Z,2.20
2019-04-21T17:58:56.784Z,2.45
2019-04-21T18:01:32.178Z,2.00
2019-04-21T18:04:05.236Z,2.58
2019-04-21T18:06:36.329Z,4.72
2019-04-21T18:09:09.117Z,2.85
2019-04-21T18:11:42.767Z,2.20
2019-04-21T18:13:51.422Z,2.30
2019-04-21T18:16:30.253Z,2.52
2019-04-21T18:18:52.962Z,2.15
2019-04-21T18:21:34.606Z,2.80
2019-04-21T18:24:14.694Z,2.20
2019-04-21T18:26:46.782Z,2.40
2019-04-21T18:29:09.472Z,2.00
2019-04-21T18:31:45.238Z,1.95
2019-04-21T18:34:16.301Z,2.65
2019-04-21T18:36:48.690Z,2.33
2019-04-21T18:39:34.270Z,1.75
2019-04-21T18:42:13.904Z,1.90
2019-04-21T18:44:53.749Z,2.70
2019-04-21T18:47:33.021Z,2.33
2019-04-21T18:49:42.681Z,1.90
2019-04-21T18:52:26.906Z,2.08
2019-04-21T18:55:01.532Z,2.00
2019-04-21T18:57:30.498Z,2.00
2019-04-21T18:59:51.387Z,1.77
2019-04-21T19:02:22.418Z,2.05
2019-04-21T19:04:55.845Z,2.05
2019-04-21T19:07:37.669Z,2.80
2019-04-21T19:10:29.593Z,2.22
2019-04-21T19:15:27.474Z,2.35
2019-04-21T19:18:32.499Z,2.02
2019-04-21T19:20:34.764Z,2.77
2019-04-21T19:22:57.046Z,2.27
2019-04-21T19:25:31.504Z,2.30
2019-04-21T19:27:58.860Z,2.22
2019-04-21T19:30:43.055Z,2.20
2019-04-21T19:33:11.582Z,2.35
2019-04-21T19:35:23.604Z,2.30
2019-04-21T19:37:59.394Z,2.25
2019-04-21T19:40:40.797Z,1.98
2019-04-21T19:43:03.392Z,2.40
2019-04-21T19:45:36.773Z,2.20
2019-04-21T19:48:13.588Z,2.15
2019-04-21T19:50:46.955Z,2.60
2019-04-21T19:53:06.388Z,2.87
2019-04-21T19:55:31.932Z,2.40
2019-04-21T20:00:30.626Z,2.35
2019-04-21T20:03:00.814Z,2.47
2019-04-21T20:05:41.042Z,2.45
2019-04-21T20:08:17.592Z,3.33
2019-04-21T20:10:55.279Z,2.95
2019-04-21T20:13:36.539Z,2.72
2019-04-21T20:15:56.695Z,2.70
2019-04-21T20:18:20.076Z,2.83
2019-04-21T20:20:43.847Z,2.95
2019-04-21T20:23:18.020Z,2.80
2019-04-21T20:25:49.799Z,2.92
2019-04-21T20:28:30.579Z,3.12
2019-04-21T20:31:09.607Z,3.33
2019-04-21T20:36:12.018Z,2.90
2019-04-21T20:38:31.143Z,2.33
2019-04-21T20:41:00.061Z,2.98
2019-04-21T20:43:42.665Z,3.05
2019-04-21T20:46:26.295Z,3.08
2019-04-21T20:48:35.592Z,2.85
2019-04-21T20:51:16.760Z,3.37
2019-04-21T20:53:45.312Z,3.92
2019-04-21T20:56:11.388Z,2.85
2019-04-21T20:58:45.083Z,3.00
2019-04-21T21:01:31.316Z,3.20
2019-04-21T21:03:47.949Z,3.35
2019-04-21T21:06:19.560Z,2.72
2019-04-21T21:08:49.987Z,2.65
2019-04-21T21:11:24.271Z,3.08
2019-04-21T21:13:53.765Z,2.75
2019-04-21T21:16:29.523Z,2.65
2019-04-21T21:19:18.608Z,2.92
2019-04-21T21:21:28.078Z,2.75
2019-04-21T21:23:58.924Z,3.15
2019-04-21T21:26:31.254Z,3.33
2019-04-21T21:28:54.710Z,3.25
2019-04-21T21:31:40.077Z,2.92
2019-04-21T21:34:11.877Z,3.17
2019-04-21T21:36:36.635Z,2.90
2019-04-21T21:39:08.709Z,3.00
2019-04-21T21:41:26.528Z,2.92
2019-04-21T21:43:58.035Z,3.10
2019-04-21T21:46:34.134Z,3.00
2019-04-21T21:49:01.956Z,2.85
2019-04-21T21:51:39.506Z,2.87
2019-04-21T21:53:54.777Z,3.05
2019-04-21T21:56:24.692Z,2.75
2019-04-21T21:58:55.205Z,2.77
2019-04-21T22:01:31.915Z,2.83
2019-04-21T22:04:04.866Z,3.08
2019-04-21T22:06:38.702Z,3.12
2019-04-21T22:08:58.940Z,2.87
2019-04-21T22:11:29.679Z,3.10
2019-04-21T22:14:03.200Z,3.62
2019-04-21T22:16:44.096Z,3.25
2019-04-21T22:19:18.854Z,3.08
2019-04-21T22:21:53.464Z,2.87
2019-04-21T22:24:10.991Z,2.95
2019-04-21T22:26:34.762Z,2.52
2019-04-21T22:29:05.580Z,2.40
2019-04-21T22:31:38.885Z,2.77
2019-04-21T22:34:10.547Z,2.58
2019-04-21T22:36:48.699Z,3.12
2019-04-21T22:39:30.693Z,3.02
2019-04-21T22:41:45.628Z,2.85
2019-04-21T22:44:16.856Z,2.98
2019-04-21T22:46:58.598Z,3.00
2019-04-21T22:49:18.616Z,3.05
2019-04-21T22:51:51.540Z,3.33
2019-04-21T22:54:25.725Z,3.27
2019-04-21T22:56:59.365Z,3.50
2019-04-21T22:59:25.987Z,3.17
2019-04-21T23:01:55.795Z,3.50
2019-04-21T23:04:32.905Z,3.35
2019-04-21T23:07:02.159Z,3.10
2019-04-21T23:09:28.744Z,2.72
2019-04-21T23:12:00.035Z,3.65
2019-04-21T23:14:33.867Z,3.58
2019-04-21T23:17:24.135Z,3.08
2019-04-21T23:19:42.238Z,3.08
2019-04-21T23:22:16.248Z,3.17
2019-04-21T23:24:56.545Z,2.80
2019-04-21T23:27:14.157Z,3.50
2019-04-21T23:30:08.412Z,2.83
2019-04-21T23:32:19.718Z,3.50
2019-04-21T23:34:40.334Z,2.90
2019-04-21T23:37:14.295Z,3.35
2019-04-21T23:39:39.733Z,3.30
2019-04-21T23:42:09.251Z,3.22
2019-04-21T23:44:44.563Z,3.40
2019-04-21T23:47:12.082Z,3.72
2019-04-21T23:49:51.085Z,3.12
2019-04-21T23:52:14.463Z,3.15
2019-04-21T23:54:43.097Z,3.58
2019-04-21T23:57:23.191Z,3.35
2019-04-21T23:59:46.872Z,3.00
